Time;durP1;ratioP1;P1;durP2;ratioP2;P2;SDS_P1;SDS_P2;PMS_P1;PMS_P2;Temp;Humidity;BMP_temperature;BMP_pressure;BME280_temperature;BME280_humidity;BME280_pressure;Samples;Min_cycle;Max_cycle;Signal;HPM_P1;HPM_P2
2021/12/13 00:00:00;;;;;;;;;;;;;;;21.67;30.47;97834.41;5085695;28;1276;-73
2021/12/13 00:02:28;;;;;;;;;;;;;;;21.89;31.04;97826.84;5093494;28;1282;-72
2021/12/13 00:05:00;;;;;;;;;;;;;;;22.05;30.71;97814.63;5098621;28;1906;-73
2021/12/13 00:07:27;;;;;;;;;;;;;;;22.35;30.71;97801.94;5098603;28;931;-73
2021/12/13 00:09:53;;;;;;;;;;;;;;;22.42;31.17;97803.75;5098319;28;976;-73
2021/12/13 00:12:29;;;;;;;;;;;;;;;22.79;31.03;97811.38;5097320;28;937;-73
2021/12/13 00:14:55;;;;;;;;;;;;;;;22.13;31.65;97823.72;5098659;28;895;-73
2021/12/13 00:17:25;;;;;;;;;;;;;;;21.31;32.62;97824.91;5098482;28;852;-73
2021/12/13 00:19:55;;;;;;;;;;;;;;;21.78;31.69;97824.34;5098344;28;943;-73
2021/12/13 00:22:23;;;;;;;;;;;;;;;22.21;30.87;97803.19;5098121;28;1076;-73
2021/12/13 00:24:49;;;;;;;;;;;;;;;21.89;31.56;97804.19;5098171;28;1983;-73
2021/12/13 00:27:18;;;;;;;;;;;;;;;22.08;31.35;97800.34;5096427;28;947;-73
2021/12/13 00:29:46;;;;;;;;;;;;;;;21.99;31.49;97790.94;5058964;28;1232;-73
2021/12/13 00:32:19;;;;;;;;;;;;;;;22.07;31.19;97789.44;5075544;28;1022;-73
2021/12/13 00:34:51;;;;;;;;;;;;;;;22.04;31.01;97798.88;5075852;28;959;-73
2021/12/13 00:37:24;;;;;;;;;;;;;;;22.25;30.78;97797.41;5075254;28;1009;-73
2021/12/13 00:39:49;;;;;;;;;;;;;;;21.97;31.02;97796.28;5058588;28;945;-73
2021/12/13 00:42:15;;;;;;;;;;;;;;;22.27;30.44;97807.03;5075236;28;892;-73
2021/12/13 00:44:42;;;;;;;;;;;;;;;22.16;30.53;97823.59;5075320;28;1910;-73
2021/12/13 00:47:09;;;;;;;;;;;;;;;21.67;31.27;97832.38;5034885;28;1526;-74
2021/12/13 00:49:35;;;;;;;;;;;;;;;21.57;31.52;97851.25;5018707;28;1097;-73
2021/12/13 00:52:02;;;;;;;;;;;;;;;22.19;30.40;97856.72;5035322;28;1069;-73
2021/12/13 00:54:37;;;;;;;;;;;;;;;22.28;30.06;97848.34;5035261;28;921;-73
2021/12/13 00:57:05;;;;;;;;;;;;;;;21.83;30.75;97846.44;5015273;28;973;-73
2021/12/13 00:59:31;;;;;;;;;;;;;;;21.98;30.49;97857.34;5015072;28;1077;-73
2021/12/13 01:02:00;;;;;;;;;;;;;;;22.12;30.46;97847.63;4976260;28;1081;-73
2021/12/13 01:04:44;;;;;;;;;;;;;;;22.60;28.71;97840.81;4976224;28;923;-74
2021/12/13 01:07:28;;;;;;;;;;;;;;;22.08;29.24;97850.56;4966376;28;1005;-73
2021/12/13 01:10:12;;;;;;;;;;;;;;;21.74;29.62;97842.69;4976403;28;919;-73
2021/12/13 01:12:40;;;;;;;;;;;;;;;21.96;29.69;97842.81;4975643;28;995;-73
2021/12/13 01:15:16;;;;;;;;;;;;;;;21.59;30.35;97840.25;4960418;28;945;-73
2021/12/13 01:20:25;;;;;;;;;;;;;;;21.67;30.73;97835.19;4937440;29;1020;-73
2021/12/13 01:22:55;;;;;;;;;;;;;;;22.18;29.99;97828.84;4937286;29;915;-73
2021/12/13 01:25:38;;;;;;;;;;;;;;;22.23;30.09;97837.56;4937238;29;1898;-73
2021/12/13 01:28:24;;;;;;;;;;;;;;;21.81;30.61;97826.28;4937028;29;1006;-73
2021/12/13 01:30:55;;;;;;;;;;;;;;;21.68;30.47;97833.94;4955661;28;1061;-73
2021/12/13 01:33:23;;;;;;;;;;;;;;;21.73;30.36;97824.91;4975546;28;1011;-73
2021/12/13 01:35:49;;;;;;;;;;;;;;;21.76;30.61;97818.34;4994819;28;986;-74
2021/12/13 01:38:16;;;;;;;;;;;;;;;22.26;29.53;97822.47;4994104;28;947;-73
2021/12/13 01:40:44;;;;;;;;;;;;;;;22.49;29.83;97815.66;4994608;28;962;-73
2021/12/13 01:43:14;;;;;;;;;;;;;;;22.78;29.70;97818.31;4994933;28;1145;-73
2021/12/13 01:45:41;;;;;;;;;;;;;;;22.16;31.14;97828.47;4994793;28;1902;-73
2021/12/13 01:48:06;;;;;;;;;;;;;;;21.94;30.62;97829.13;4974992;28;971;-73
2021/12/13 01:50:43;;;;;;;;;;;;;;;21.87;31.32;97811.56;4979323;28;1050;-73
2021/12/13 01:53:09;;;;;;;;;;;;;;;22.12;30.63;97794.56;4975158;28;1006;-73
2021/12/13 01:55:37;;;;;;;;;;;;;;;22.44;30.22;97798.44;4975363;28;1005;-73
2021/12/13 01:58:26;;;;;;;;;;;;;;;21.89;30.71;97809.84;4994094;28;1374;-73
2021/12/13 02:01:10;;;;;;;;;;;;;;;22.34;30.32;97804.00;4996881;28;990;-73
2021/12/13 02:03:42;;;;;;;;;;;;;;;21.98;30.89;97817.69;5013881;28;938;-73
2021/12/13 02:06:08;;;;;;;;;;;;;;;22.07;30.30;97814.94;5014031;28;1987;-73
2021/12/13 02:08:33;;;;;;;;;;;;;;;22.16;30.05;97817.94;5014292;28;958;-73
2021/12/13 02:10:59;;;;;;;;;;;;;;;21.85;29.90;97817.66;4994803;28;998;-73
2021/12/13 02:13:39;;;;;;;;;;;;;;;21.46;30.52;97827.31;4994463;28;1109;-74
2021/12/13 02:18:50;;;;;;;;;;;;;;;21.42;30.70;97832.28;5001780;28;1018;-73
2021/12/13 02:21:22;;;;;;;;;;;;;;;21.65;30.40;97834.84;5013846;28;1088;-73
2021/12/13 02:23:48;;;;;;;;;;;;;;;22.01;29.76;97826.06;5014279;28;1099;-73
2021/12/13 02:26:13;;;;;;;;;;;;;;;22.07;29.29;97814.94;5013904;28;1981;-73
2021/12/13 02:28:40;;;;;;;;;;;;;;;22.28;29.30;97820.00;5020176;28;988;-73
2021/12/13 02:31:07;;;;;;;;;;;;;;;21.70;29.67;97837.09;5033803;28;1031;-73
2021/12/13 02:33:40;;;;;;;;;;;;;;;22.00;29.83;97843.50;4993791;28;997;-73
2021/12/13 02:36:19;;;;;;;;;;;;;;;21.21;31.41;97842.94;4994449;28;949;-73
2021/12/13 02:38:48;;;;;;;;;;;;;;;21.64;31.28;97847.41;4994217;28;1054;-73
2021/12/13 02:41:14;;;;;;;;;;;;;;;21.62;31.21;97840.63;4994325;28;933;-73
2021/12/13 02:43:42;;;;;;;;;;;;;;;22.10;30.25;97833.88;4994411;28;989;-73
2021/12/13 02:46:08;;;;;;;;;;;;;;;21.71;30.97;97823.75;4994556;28;1922;-73
2021/12/13 02:48:46;;;;;;;;;;;;;;;21.77;30.47;97828.41;4994281;28;934;-73
2021/12/13 02:51:16;;;;;;;;;;;;;;;22.21;29.68;97842.88;4996872;28;1267;-73
2021/12/13 02:53:43;;;;;;;;;;;;;;;21.29;31.30;97841.47;4998169;28;1002;-73
2021/12/13 02:56:09;;;;;;;;;;;;;;;21.63;30.75;97837.34;4997902;28;977;-73
2021/12/13 02:58:34;;;;;;;;;;;;;;;21.40;30.95;97814.94;5009200;28;999;-73
2021/12/13 03:01:00;;;;;;;;;;;;;;;21.87;30.10;97822.88;5057396;28;1025;-73
2021/12/13 03:03:27;;;;;;;;;;;;;;;21.55;30.63;97818.94;5059282;28;1021;-73
2021/12/13 03:05:53;;;;;;;;;;;;;;;21.55;30.75;97807.63;5099744;28;1974;-73
2021/12/13 03:08:35;;;;;;;;;;;;;;;21.85;30.04;97821.28;5099638;28;930;-73
2021/12/13 03:11:01;;;;;;;;;;;;;;;21.51;30.43;97823.94;5100009;28;978;-73
2021/12/13 03:13:28;;;;;;;;;;;;;;;21.68;30.02;97802.00;5099874;28;916;-73
2021/12/13 03:15:58;;;;;;;;;;;;;;;21.66;30.06;97833.63;5063991;28;971;-73
2021/12/13 03:18:48;;;;;;;;;;;;;;;21.55;29.83;97825.44;5063968;28;938;-73
2021/12/13 03:21:19;;;;;;;;;;;;;;;21.75;30.28;97833.72;5056793;28;1117;-73
2021/12/13 03:23:48;;;;;;;;;;;;;;;22.54;29.09;97848.31;5056841;28;945;-73
2021/12/13 03:26:25;;;;;;;;;;;;;;;22.63;28.19;97828.56;5056889;28;1906;-73
2021/12/13 03:28:56;;;;;;;;;;;;;;;21.46;29.78;97849.97;5036583;28;1032;-73
2021/12/13 03:31:27;;;;;;;;;;;;;;;21.66;29.15;97853.44;5036739;28;1002;-73
2021/12/13 03:34:22;;;;;;;;;;;;;;;21.21;30.36;97851.44;5036700;28;1048;-73
2021/12/13 03:37:05;;;;;;;;;;;;;;;21.86;29.39;97853.22;4958478;29;964;-73
2021/12/13 03:39:34;;;;;;;;;;;;;;;21.83;29.59;97857.75;4958437;29;1032;-73
2021/12/13 03:42:00;;;;;;;;;;;;;;;22.04;29.22;97841.38;4958424;29;1070;-73
2021/12/13 03:44:30;;;;;;;;;;;;;;;22.41;28.83;97844.69;4920041;29;955;-73
2021/12/13 03:46:59;;;;;;;;;;;;;;;22.18;29.39;97857.97;4920035;29;1903;-73
2021/12/13 03:49:24;;;;;;;;;;;;;;;22.46;29.04;97863.97;4938778;29;935;-73
2021/12/13 03:51:50;;;;;;;;;;;;;;;21.82;30.05;97861.84;4945727;29;1160;-73
2021/12/13 03:54:16;;;;;;;;;;;;;;;21.38;30.60;97862.72;4957969;29;1021;-73
2021/12/13 03:56:43;;;;;;;;;;;;;;;21.79;29.95;97862.75;4957910;29;1016;-73
2021/12/13 03:59:14;;;;;;;;;;;;;;;22.30;29.19;97868.50;4958055;29;950;-72
2021/12/13 04:01:43;;;;;;;;;;;;;;;21.70;30.03;97853.31;4957260;28;1032;-73
2021/12/13 04:04:10;;;;;;;;;;;;;;;21.79;30.27;97857.06;4977197;28;1108;-74
2021/12/13 04:06:46;;;;;;;;;;;;;;;21.77;30.08;97850.28;4989154;28;1911;-73
2021/12/13 04:09:11;;;;;;;;;;;;;;;21.59;30.17;97865.75;4938438;29;1047;-73
2021/12/13 04:11:37;;;;;;;;;;;;;;;21.62;30.52;97881.06;4938645;29;1018;-73
2021/12/13 04:14:15;;;;;;;;;;;;;;;21.88;29.91;97881.13;4935898;29;950;-73
2021/12/13 04:16:50;;;;;;;;;;;;;;;21.78;30.05;97872.47;4977133;28;968;-73
2021/12/13 04:19:22;;;;;;;;;;;;;;;21.57;29.96;97864.63;4976989;28;984;-74
2021/12/13 04:21:55;;;;;;;;;;;;;;;22.20;28.62;97886.63;4977000;28;996;-73
2021/12/13 04:24:31;;;;;;;;;;;;;;;21.12;30.08;97882.38;4977345;28;950;-74
2021/12/13 04:26:58;;;;;;;;;;;;;;;21.56;29.40;97880.81;4991395;28;1910;-73
2021/12/13 04:29:26;;;;;;;;;;;;;;;21.88;28.78;97861.28;5015559;28;1011;-73
2021/12/13 04:31:52;;;;;;;;;;;;;;;22.05;28.71;97854.28;4982145;28;1160;-73
2021/12/13 04:34:19;;;;;;;;;;;;;;;21.75;29.38;97845.06;4950312;28;1385;-73
2021/12/13 04:36:45;;;;;;;;;;;;;;;22.10;28.58;97857.38;4956513;29;1362;-74
2021/12/13 04:39:14;;;;;;;;;;;;;;;22.37;28.52;97867.47;4955627;29;1358;-74
2021/12/13 04:41:42;;;;;;;;;;;;;;;22.33;28.17;97881.78;4956816;29;1255;-74
2021/12/13 04:44:09;;;;;;;;;;;;;;;22.67;28.32;97885.94;4956700;29;1311;-75
2021/12/13 04:46:35;;;;;;;;;;;;;;;22.10;28.94;97879.22;4959248;28;1915;-74
2021/12/13 04:49:03;;;;;;;;;;;;;;;22.16;29.00;97885.94;4976530;28;917;-74
2021/12/13 04:51:35;;;;;;;;;;;;;;;22.22;28.96;97884.13;4975976;28;1235;-74
2021/12/13 04:54:00;;;;;;;;;;;;;;;21.82;29.27;97884.50;4976514;28;1001;-74
2021/12/13 04:56:26;;;;;;;;;;;;;;;21.57;30.27;97885.22;4943949;28;999;-74
2021/12/13 04:58:52;;;;;;;;;;;;;;;22.03;29.09;97868.91;4943666;28;1028;-74
2021/12/13 05:01:18;;;;;;;;;;;;;;;22.26;28.21;97867.81;4976219;28;1023;-74
2021/12/13 05:03:45;;;;;;;;;;;;;;;21.23;29.80;97870.78;4993054;28;1002;-74
2021/12/13 05:06:13;;;;;;;;;;;;;;;21.83;28.50;97860.59;5029777;28;1922;-74
2021/12/13 05:08:38;;;;;;;;;;;;;;;21.81;28.53;97865.94;5069540;28;1003;-74
2021/12/13 05:11:05;;;;;;;;;;;;;;;21.98;28.59;97852.47;5076432;28;894;-75
2021/12/13 05:13:30;;;;;;;;;;;;;;;21.98;28.34;97863.00;5076827;28;876;-74
2021/12/13 05:16:00;;;;;;;;;;;;;;;22.29;28.21;97861.25;5077050;28;965;-74
2021/12/13 05:18:30;;;;;;;;;;;;;;;22.32;28.10;97866.00;5034604;28;918;-74
2021/12/13 05:21:05;;;;;;;;;;;;;;;22.46;27.75;97864.75;4995203;28;1096;-75
2021/12/13 05:23:31;;;;;;;;;;;;;;;21.90;28.48;97867.28;4994875;28;1017;-74
2021/12/13 05:26:01;;;;;;;;;;;;;;;21.56;29.61;97883.63;4995079;28;2000;-74
2021/12/13 05:28:36;;;;;;;;;;;;;;;21.38;30.28;97888.19;4955972;29;1093;-74
2021/12/13 05:31:05;;;;;;;;;;;;;;;21.73;29.29;97884.38;4937027;29;980;-75
2021/12/13 05:33:32;;;;;;;;;;;;;;;22.19;28.53;97868.03;4936992;29;1042;-75
2021/12/13 05:35:58;;;;;;;;;;;;;;;21.85;29.26;97871.47;4937263;29;999;-75
2021/12/13 05:38:43;;;;;;;;;;;;;;;21.68;29.51;97870.75;4936782;29;1010;-74
2021/12/13 05:41:13;;;;;;;;;;;;;;;21.78;29.15;97871.69;4937013;29;995;-74
2021/12/13 05:43:57;;;;;;;;;;;;;;;22.06;28.57;97875.69;4936894;29;998;-74
2021/12/13 05:46:24;;;;;;;;;;;;;;;21.98;28.83;97877.19;4936877;29;1911;-74
2021/12/13 05:48:51;;;;;;;;;;;;;;;21.63;29.08;97879.81;4930648;28;1083;-74
2021/12/13 05:51:19;;;;;;;;;;;;;;;21.67;29.42;97877.66;4984422;28;1135;-74
2021/12/13 05:53:45;;;;;;;;;;;;;;;21.62;29.31;97869.72;5014431;28;1096;-74
2021/12/13 05:56:12;;;;;;;;;;;;;;;22.35;27.99;97875.66;5014414;28;1065;-74
2021/12/13 05:58:46;;;;;;;;;;;;;;;22.27;27.60;97868.59;5020853;28;1018;-74
2021/12/13 06:01:14;;;;;;;;;;;;;;;21.84;28.17;97861.38;5020243;28;2081;-74
2021/12/13 06:03:42;;;;;;;;;;;;;;;21.85;28.08;97862.97;5014312;28;993;-74
2021/12/13 06:06:11;;;;;;;;;;;;;;;21.42;28.72;97883.25;5013772;28;1971;-74
2021/12/13 06:08:41;;;;;;;;;;;;;;;22.16;27.98;97880.28;5014001;28;1045;-74
2021/12/13 06:11:08;;;;;;;;;;;;;;;22.60;27.15;97880.53;5014351;28;963;-74
2021/12/13 06:13:33;;;;;;;;;;;;;;;22.44;27.23;97872.94;5013899;28;939;-74
2021/12/13 06:15:59;;;;;;;;;;;;;;;22.12;27.64;97888.09;5014155;28;961;-75
2021/12/13 06:18:24;;;;;;;;;;;;;;;21.61;28.45;97885.13;5014179;28;1007;-74
2021/12/13 06:20:58;;;;;;;;;;;;;;;21.66;28.44;97898.75;4981194;28;975;-74
2021/12/13 06:23:31;;;;;;;;;;;;;;;21.68;28.61;97895.44;4974617;28;980;-74
2021/12/13 06:26:00;;;;;;;;;;;;;;;21.39;29.07;97886.94;4957740;28;1914;-74
2021/12/13 06:28:29;;;;;;;;;;;;;;;21.79;28.34;97891.06;4959616;29;1013;-74
2021/12/13 06:30:59;;;;;;;;;;;;;;;21.96;27.96;97908.78;4959737;29;1020;-74
2021/12/13 06:33:25;;;;;;;;;;;;;;;22.16;27.86;97925.63;4998440;28;973;-74
2021/12/13 06:35:50;;;;;;;;;;;;;;;22.17;27.58;97932.88;5018119;28;1002;-74
2021/12/13 06:38:18;;;;;;;;;;;;;;;21.78;28.47;97934.00;5018315;28;1090;-74
2021/12/13 06:40:54;;;;;;;;;;;;;;;22.08;27.59;97946.91;5019835;28;1466;-74
2021/12/13 06:43:25;;;;;;;;;;;;;;;22.36;27.25;97957.41;5037554;28;1003;-74
2021/12/13 06:45:51;;;;;;;;;;;;;;;22.15;27.74;97963.72;5037672;28;1910;-74
2021/12/13 06:48:16;;;;;;;;;;;;;;;22.44;27.39;97962.88;5037567;28;1003;-74
2021/12/13 06:50:42;;;;;;;;;;;;;;;22.01;27.76;97958.41;4988084;28;1198;-75
2021/12/13 06:53:10;;;;;;;;;;;;;;;21.80;28.02;97954.16;5020632;28;1542;-74
2021/12/13 06:55:35;;;;;;;;;;;;;;;21.72;27.80;97928.09;5097667;28;1051;-74
2021/12/13 06:58:03;;;;;;;;;;;;;;;21.36;28.43;97896.34;5099592;28;1058;-74
2021/12/13 07:00:31;;;;;;;;;;;;;;;21.96;27.56;97905.16;5099893;28;1151;-75
2021/12/13 07:03:00;;;;;;;;;;;;;;;21.77;27.91;97916.22;5099712;28;956;-74
2021/12/13 07:05:27;;;;;;;;;;;;;;;22.08;27.30;97915.72;5057005;28;2005;-74
2021/12/13 07:08:05;;;;;;;;;;;;;;;22.35;27.02;97918.16;5056588;28;1056;-74
2021/12/13 07:10:35;;;;;;;;;;;;;;;22.06;27.27;97915.38;5057126;28;1014;-74
2021/12/13 07:13:01;;;;;;;;;;;;;;;22.10;27.37;97916.06;5056905;28;1029;-74
2021/12/13 07:15:36;;;;;;;;;;;;;;;21.57;28.06;97922.03;5057107;28;999;-75
2021/12/13 07:18:04;;;;;;;;;;;;;;;21.57;28.10;97941.84;5056874;28;1055;-75
2021/12/13 07:20:34;;;;;;;;;;;;;;;21.84;27.69;97950.00;5056477;28;958;-74
2021/12/13 07:23:00;;;;;;;;;;;;;;;21.91;27.76;97956.69;5056989;28;985;-74
2021/12/13 07:25:25;;;;;;;;;;;;;;;21.49;28.15;97951.75;5056897;28;2004;-74
2021/12/13 07:27:51;;;;;;;;;;;;;;;22.16;27.16;97976.63;5056539;28;970;-74
2021/12/13 07:30:17;;;;;;;;;;;;;;;22.12;26.99;97958.94;5056808;28;1028;-74
2021/12/13 07:32:57;;;;;;;;;;;;;;;21.79;27.49;97961.88;5056318;28;1035;-74
2021/12/13 07:35:41;;;;;;;;;;;;;;;22.01;27.22;97976.22;5059593;28;1036;-74
2021/12/13 07:38:07;;;;;;;;;;;;;;;22.23;26.76;97976.44;5096803;28;947;-74
2021/12/13 07:40:32;;;;;;;;;;;;;;;21.74;27.44;97979.41;5096927;28;1068;-74
2021/12/13 07:43:00;;;;;;;;;;;;;;;21.49;27.89;97973.63;5096342;28;1009;-74
2021/12/13 07:45:30;;;;;;;;;;;;;;;21.49;27.76;97970.78;5097449;28;1977;-74
2021/12/13 07:47:56;;;;;;;;;;;;;;;21.91;27.35;97976.53;5056121;28;1047;-74
2021/12/13 07:50:22;;;;;;;;;;;;;;;21.57;27.93;97975.81;5056357;28;1161;-74
2021/12/13 07:52:52;;;;;;;;;;;;;;;22.18;26.89;97985.50;5056438;28;1052;-75
2021/12/13 07:55:19;;;;;;;;;;;;;;;22.21;26.92;97990.25;5056233;28;999;-74
2021/12/13 07:57:44;;;;;;;;;;;;;;;22.04;27.21;97985.88;5056121;28;1154;-74
2021/12/13 08:00:14;;;;;;;;;;;;;;;21.96;27.10;97990.13;5056063;28;1080;-74
2021/12/13 08:02:39;;;;;;;;;;;;;;;21.40;27.79;97991.25;5056259;28;957;-74
2021/12/13 08:05:11;;;;;;;;;;;;;;;21.67;27.41;97990.94;5055664;28;1914;-75
2021/12/13 08:07:50;;;;;;;;;;;;;;;21.52;27.83;97986.91;5056192;28;1092;-74
2021/12/13 08:10:19;;;;;;;;;;;;;;;21.46;27.97;97986.63;5056088;28;959;-74
2021/12/13 08:12:49;;;;;;;;;;;;;;;21.72;27.58;97986.78;5056311;28;1170;-74
2021/12/13 08:15:16;;;;;;;;;;;;;;;21.76;27.53;97982.59;5056085;28;973;-74
2021/12/13 08:17:51;;;;;;;;;;;;;;;21.72;27.65;97984.72;5056001;28;997;-74
2021/12/13 08:20:26;;;;;;;;;;;;;;;22.03;27.03;97990.75;5098347;28;935;-74
2021/12/13 08:22:51;;;;;;;;;;;;;;;21.52;27.52;97982.03;5098197;28;1006;-74
2021/12/13 08:25:19;;;;;;;;;;;;;;;21.63;27.57;97990.22;5098182;28;1922;-74
2021/12/13 08:27:48;;;;;;;;;;;;;;;21.48;27.78;97983.34;5097960;28;916;-74
2021/12/13 08:30:13;;;;;;;;;;;;;;;21.84;27.58;97998.13;5075267;28;1106;-74
2021/12/13 08:32:52;;;;;;;;;;;;;;;21.63;27.70;97995.91;5075878;28;983;-74
2021/12/13 08:35:18;;;;;;;;;;;;;;;22.05;27.04;97993.13;5058539;28;973;-74
2021/12/13 08:37:45;;;;;;;;;;;;;;;22.28;26.72;97995.72;5058893;28;987;-74
2021/12/13 08:40:12;;;;;;;;;;;;;;;22.03;26.93;97985.06;5042135;28;952;-74
2021/12/13 08:42:41;;;;;;;;;;;;;;;22.29;26.60;97985.97;5058646;28;978;-74
2021/12/13 08:45:16;;;;;;;;;;;;;;;22.00;27.17;97973.84;5058625;28;1898;-74
2021/12/13 08:47:47;;;;;;;;;;;;;;;22.29;26.91;97971.78;5074816;28;971;-74
2021/12/13 08:50:15;;;;;;;;;;;;;;;22.71;26.51;97968.88;5075016;28;1060;-74
2021/12/13 08:52:41;;;;;;;;;;;;;;;22.25;27.01;97962.59;5074995;28;1028;-74
2021/12/13 08:55:12;;;;;;;;;;;;;;;21.89;27.88;97962.03;5074925;28;1053;-74
2021/12/13 08:57:46;;;;;;;;;;;;;;;21.82;28.28;97963.81;5054637;28;1691;-74
2021/12/13 09:00:12;;;;;;;;;;;;;;;22.05;27.62;97976.13;5056736;28;966;-74
2021/12/13 09:02:41;;;;;;;;;;;;;;;22.08;27.87;97969.56;5074978;28;994;-74
2021/12/13 09:05:13;;;;;;;;;;;;;;;21.96;27.72;97973.94;5074581;28;1906;-74
2021/12/13 09:08:11;;;;;;;;;;;;;;;22.31;27.20;97977.00;5074533;28;946;-74
2021/12/13 09:10:42;;;;;;;;;;;;;;;21.62;28.25;97982.97;5054754;28;1003;-74
2021/12/13 09:13:08;;;;;;;;;;;;;;;21.49;28.36;97984.94;5054686;28;1048;-74
2021/12/13 09:15:35;;;;;;;;;;;;;;;22.06;27.55;97987.00;5038086;28;953;-75
2021/12/13 09:18:00;;;;;;;;;;;;;;;22.02;27.58;97985.50;5054496;28;879;-74
2021/12/13 09:20:34;;;;;;;;;;;;;;;22.31;27.04;97994.00;5054628;28;1030;-75
2021/12/13 09:23:19;;;;;;;;;;;;;;;22.12;26.81;97992.13;5052215;28;959;-74
2021/12/13 09:25:50;;;;;;;;;;;;;;;21.45;28.03;97972.91;5014403;28;1984;-74
2021/12/13 09:28:18;;;;;;;;;;;;;;;21.92;27.13;97978.94;5008070;28;966;-75
2021/12/13 09:30:46;;;;;;;;;;;;;;;21.84;27.35;97972.66;4995152;28;1056;-74
2021/12/13 09:33:18;;;;;;;;;;;;;;;22.01;27.10;97975.41;4994916;28;1024;-75
2021/12/13 09:35:54;;;;;;;;;;;;;;;22.19;27.01;97987.06;4994714;28;893;-74
2021/12/13 09:38:22;;;;;;;;;;;;;;;21.94;27.55;97975.63;4994903;28;935;-74
2021/12/13 09:40:49;;;;;;;;;;;;;;;22.30;26.70;97970.53;4994913;28;1367;-75
2021/12/13 09:43:15;;;;;;;;;;;;;;;22.23;26.88;97965.09;4995119;28;997;-74
2021/12/13 09:45:43;;;;;;;;;;;;;;;22.05;27.09;97961.94;5011539;28;1981;-74
2021/12/13 09:48:20;;;;;;;;;;;;;;;22.12;26.86;97964.59;5014715;28;956;-74
2021/12/13 09:50:47;;;;;;;;;;;;;;;22.02;27.14;97960.00;5013935;28;1082;-74
2021/12/13 09:53:12;;;;;;;;;;;;;;;22.26;26.56;97958.50;5014470;28;899;-74
2021/12/13 09:55:42;;;;;;;;;;;;;;;22.16;26.97;97948.28;5013213;28;1242;-74
2021/12/13 09:58:18;;;;;;;;;;;;;;;22.05;26.96;97953.44;4994773;28;972;-74
2021/12/13 10:01:00;;;;;;;;;;;;;;;22.15;26.85;97955.22;4994137;28;966;-74
2021/12/13 10:03:30;;;;;;;;;;;;;;;21.84;27.09;97955.66;5013986;28;997;-74
2021/12/13 10:05:59;;;;;;;;;;;;;;;21.74;27.48;97962.41;5014063;28;1883;-75
2021/12/13 10:08:29;;;;;;;;;;;;;;;21.76;27.26;97948.63;5014132;28;977;-74
2021/12/13 10:10:59;;;;;;;;;;;;;;;21.72;27.38;97953.56;5014149;28;960;-75
2021/12/13 10:13:26;;;;;;;;;;;;;;;21.82;27.25;97957.34;5013025;28;1837;-74
2021/12/13 10:15:53;;;;;;;;;;;;;;;21.84;27.07;97944.31;5014102;28;908;-74
2021/12/13 10:18:20;;;;;;;;;;;;;;;22.16;26.67;97951.13;5014063;28;1156;-74
2021/12/13 10:20:48;;;;;;;;;;;;;;;22.25;26.67;97948.44;5017725;28;914;-74
2021/12/13 10:23:14;;;;;;;;;;;;;;;22.02;26.77;97946.66;5053673;28;1007;-74
2021/12/13 10:25:41;;;;;;;;;;;;;;;22.11;26.84;97946.00;5053541;28;1902;-74
2021/12/13 10:28:08;;;;;;;;;;;;;;;22.05;26.93;97942.13;5053322;28;1000;-74
2021/12/13 10:30:35;;;;;;;;;;;;;;;22.07;26.67;97950.94;5053760;28;994;-74
2021/12/13 10:33:01;;;;;;;;;;;;;;;21.95;26.82;97937.56;5013461;28;1045;-74
2021/12/13 10:35:28;;;;;;;;;;;;;;;21.89;26.98;97940.16;5030823;28;959;-75
2021/12/13 10:37:55;;;;;;;;;;;;;;;22.01;27.39;97935.75;5033838;28;997;-75
2021/12/13 10:40:42;;;;;;;;;;;;;;;22.66;26.74;97928.97;4994033;28;1159;-74
2021/12/13 10:43:07;;;;;;;;;;;;;;;22.64;26.63;97929.41;4994071;28;980;-75
2021/12/13 10:45:34;;;;;;;;;;;;;;;22.14;26.77;97939.47;4993950;28;1981;-75
2021/12/13 10:48:01;;;;;;;;;;;;;;;21.65;27.29;97933.94;4994325;28;947;-74
2021/12/13 10:50:31;;;;;;;;;;;;;;;21.68;27.55;97935.88;4994092;28;1210;-74
2021/12/13 10:52:58;;;;;;;;;;;;;;;21.87;27.25;97936.97;4994216;28;953;-74
2021/12/13 10:55:25;;;;;;;;;;;;;;;21.96;27.24;97939.94;4994003;28;1070;-74
2021/12/13 10:57:51;;;;;;;;;;;;;;;22.07;26.98;97934.78;4994042;28;1082;-75
2021/12/13 11:00:18;;;;;;;;;;;;;;;22.00;26.88;97939.84;4994244;28;948;-74
2021/12/13 11:02:43;;;;;;;;;;;;;;;21.64;27.45;97935.19;4994128;28;993;-74
2021/12/13 11:05:13;;;;;;;;;;;;;;;22.43;26.46;97944.25;4977861;28;1986;-74
2021/12/13 11:07:39;;;;;;;;;;;;;;;22.20;26.81;97937.66;4994178;28;1039;-74
2021/12/13 11:10:08;;;;;;;;;;;;;;;21.68;27.34;97935.88;5033130;28;1030;-74
2021/12/13 11:12:39;;;;;;;;;;;;;;;21.57;27.64;97943.88;5079189;28;913;-74
2021/12/13 11:15:06;;;;;;;;;;;;;;;21.54;27.60;97947.59;5079507;28;1029;-74
2021/12/13 11:17:32;;;;;;;;;;;;;;;21.70;27.55;97933.38;5079290;28;924;-73
2021/12/13 11:19:59;;;;;;;;;;;;;;;22.17;26.77;97934.91;5079319;28;1010;-74
2021/12/13 11:22:26;;;;;;;;;;;;;;;21.61;27.89;97916.28;5079321;28;913;-74
2021/12/13 11:24:52;;;;;;;;;;;;;;;22.11;26.84;97912.00;5076821;28;955;-74
2021/12/13 11:27:20;;;;;;;;;;;;;;;21.68;27.73;97913.22;5077793;28;1942;-74
2021/12/13 11:29:46;;;;;;;;;;;;;;;22.23;26.96;97925.41;5079118;28;944;-74
2021/12/13 11:32:30;;;;;;;;;;;;;;;22.20;26.97;97926.31;5078671;28;955;-74
2021/12/13 11:35:11;;;;;;;;;;;;;;;22.66;26.69;97926.13;5079202;28;953;-74
2021/12/13 11:37:36;;;;;;;;;;;;;;;22.20;27.21;97937.66;5078944;28;918;-74
2021/12/13 11:40:07;;;;;;;;;;;;;;;21.80;27.93;97932.28;5078968;28;1110;-74
2021/12/13 11:42:51;;;;;;;;;;;;;;;21.38;28.63;97927.81;5078694;28;960;-74
2021/12/13 11:45:19;;;;;;;;;;;;;;;22.02;27.65;97915.50;5078544;28;1905;-74
2021/12/13 11:48:05;;;;;;;;;;;;;;;22.21;27.15;97927.91;5078900;28;869;-74
2021/12/13 11:50:49;;;;;;;;;;;;;;;22.30;26.93;97925.19;5078532;28;1019;-74
2021/12/13 11:53:33;;;;;;;;;;;;;;;21.85;27.69;97906.25;5078554;28;921;-74
2021/12/13 11:56:17;;;;;;;;;;;;;;;21.68;28.14;97918.91;5078765;28;967;-74
2021/12/13 11:58:42;;;;;;;;;;;;;;;21.49;28.34;97914.16;5078531;28;1155;-74
2021/12/13 12:01:26;;;;;;;;;;;;;;;21.95;27.63;97917.72;5078563;28;980;-74
2021/12/13 12:03:52;;;;;;;;;;;;;;;22.34;26.65;97914.53;5077987;28;1481;-74
2021/12/13 12:06:36;;;;;;;;;;;;;;;21.91;27.15;97914.19;5078816;28;1910;-74
2021/12/13 12:09:22;;;;;;;;;;;;;;;21.74;27.33;97916.31;5078673;28;934;-74
2021/12/13 12:11:56;;;;;;;;;;;;;;;21.68;27.38;97918.91;5077901;28;954;-74
2021/12/13 12:14:25;;;;;;;;;;;;;;;21.95;27.10;97914.91;5078528;28;928;-74
2021/12/13 12:16:52;;;;;;;;;;;;;;;21.90;27.08;97918.28;5078500;28;955;-74
2021/12/13 12:19:22;;;;;;;;;;;;;;;22.12;26.81;97919.25;5078422;28;930;-74
2021/12/13 12:21:51;;;;;;;;;;;;;;;22.36;26.49;97917.72;5077852;28;910;-74
2021/12/13 12:24:18;;;;;;;;;;;;;;;22.07;26.94;97929.09;5077490;28;869;-74
2021/12/13 12:26:45;;;;;;;;;;;;;;;21.90;27.36;97936.06;5077889;28;1969;-74
2021/12/13 12:29:18;;;;;;;;;;;;;;;22.23;26.73;97922.59;5076892;28;934;-74
2021/12/13 12:31:45;;;;;;;;;;;;;;;21.76;27.46;97920.28;5078235;28;953;-74
2021/12/13 12:34:11;;;;;;;;;;;;;;;22.12;27.00;97919.25;5076699;28;1470;-74
2021/12/13 12:36:44;;;;;;;;;;;;;;;22.12;26.78;97913.59;5078040;28;899;-74
2021/12/13 12:39:42;;;;;;;;;;;;;;;21.75;27.57;97913.03;5075091;28;1104;-74
2021/12/13 12:42:20;;;;;;;;;;;;;;;21.64;27.35;97915.38;5035194;28;983;-74
2021/12/13 12:44:55;;;;;;;;;;;;;;;21.52;27.55;97916.13;5018571;28;1583;-74
2021/12/13 12:47:46;;;;;;;;;;;;;;;21.70;27.47;97924.91;5035291;28;1985;-73
2021/12/13 12:50:12;;;;;;;;;;;;;;;21.73;27.20;97931.72;4956815;29;1222;-74
2021/12/13 12:52:56;;;;;;;;;;;;;;;22.12;26.83;97929.81;4957053;29;916;-74
2021/12/13 12:55:24;;;;;;;;;;;;;;;22.15;26.72;97946.72;4937523;29;1137;-74
2021/12/13 12:57:49;;;;;;;;;;;;;;;21.94;27.01;97936.75;4937548;29;1274;-74
2021/12/13 13:00:15;;;;;;;;;;;;;;;21.76;27.10;97942.13;4937735;29;1057;-74
2021/12/13 13:02:40;;;;;;;;;;;;;;;21.54;27.55;97947.59;4937470;29;976;-74
2021/12/13 13:05:07;;;;;;;;;;;;;;;21.66;27.49;97944.03;4934964;29;1895;-74
2021/12/13 13:07:34;;;;;;;;;;;;;;;21.74;27.30;97945.41;4937577;29;1034;-74
2021/12/13 13:10:20;;;;;;;;;;;;;;;21.68;27.59;97941.56;4921228;29;1252;-74
2021/12/13 13:12:46;;;;;;;;;;;;;;;22.10;26.89;97950.06;4937250;29;1061;-74
2021/12/13 13:15:18;;;;;;;;;;;;;;;22.10;26.71;97950.06;4937563;29;1133;-74
2021/12/13 13:17:48;;;;;;;;;;;;;;;21.69;27.43;97948.78;4931380;29;971;-74
2021/12/13 13:20:21;;;;;;;;;;;;;;;21.95;27.07;97961.00;4956590;29;1083;-74
2021/12/13 13:22:47;;;;;;;;;;;;;;;22.13;27.28;97956.91;4956168;29;1001;-74